Time;durP1;ratioP1;P1;durP2;ratioP2;P2;SDS_P1;SDS_P2;PMS_P1;PMS_P2;Temp;Humidity;BMP_temperature;BMP_pressure;BME280_temperature;BME280_humidity;BME280_pressure;Samples;Min_cycle;Max_cycle;Signal;HPM_P1;HPM_P2
2022/05/13 00:01:15;;;;;;;17.67;4.47;;;;;;;;;;5000674;28;20402;-63
2022/05/13 00:03:41;;;;;;;18.17;5.20;;;;;;;;;;5014211;28;20048;-63
2022/05/13 00:06:08;;;;;;;19.25;5.00;;;;;;;;;;5011529;28;20053;-63
2022/05/13 00:08:35;;;;;;;18.05;5.18;;;;;;;;;;5013240;28;20136;-63
2022/05/13 00:11:01;;;;;;;19.45;5.53;;;;;;;;;;5016924;28;20508;-63
2022/05/13 00:13:29;;;;;;;12.82;3.60;;;;;;;;;;5012701;28;20048;-62
2022/05/13 00:15:55;;;;;;;20.88;4.35;;;;;;;;;;5012303;28;20049;-63
2022/05/13 00:18:21;;;;;;;19.58;5.10;;;;;;;;;;5013062;28;20051;-63
2022/05/13 00:20:48;;;;;;;17.50;4.75;;;;;;;;;;5015322;28;20096;-63
2022/05/13 00:23:14;;;;;;;19.02;4.43;;;;;;;;;;5014522;28;20101;-63
2022/05/13 00:25:41;;;;;;;15.13;4.15;;;;;;;;;;5015632;28;20107;-63
2022/05/13 00:28:08;;;;;;;15.50;3.80;;;;;;;;;;4999630;28;20064;-63
2022/05/13 00:30:36;;;;;;;23.02;5.32;;;;;;;;;;5016440;28;20133;-63
2022/05/13 00:33:03;;;;;;;18.27;4.43;;;;;;;;;;5021676;28;21092;-63
2022/05/13 00:35:29;;;;;;;23.10;5.25;;;;;;;;;;5019937;28;20046;-62
2022/05/13 00:37:55;;;;;;;22.92;5.25;;;;;;;;;;5023582;28;20046;-63
2022/05/13 00:40:22;;;;;;;18.27;5.10;;;;;;;;;;5020228;28;20049;-63
2022/05/13 00:42:49;;;;;;;20.70;5.78;;;;;;;;;;5012981;28;20140;-63
2022/05/13 00:45:16;;;;;;;17.13;4.72;;;;;;;;;;5018204;28;20038;-63
2022/05/13 00:47:43;;;;;;;21.38;5.10;;;;;;;;;;5013949;28;20038;-63
2022/05/13 00:50:10;;;;;;;19.77;6.13;;;;;;;;;;5006274;28;20515;-62
2022/05/13 00:52:36;;;;;;;18.27;4.60;;;;;;;;;;5010401;28;20053;-63
2022/05/13 00:55:06;;;;;;;21.08;5.32;;;;;;;;;;5016722;28;20052;-63
2022/05/13 00:57:33;;;;;;;18.77;6.45;;;;;;;;;;5012866;28;20104;-63
2022/05/13 01:00:02;;;;;;;19.50;6.18;;;;;;;;;;5019656;28;20108;-63
2022/05/13 01:02:30;;;;;;;20.05;6.13;;;;;;;;;;5016391;28;20121;-63
2022/05/13 01:04:56;;;;;;;19.88;4.82;;;;;;;;;;5014884;28;20053;-63
2022/05/13 01:07:23;;;;;;;26.00;6.15;;;;;;;;;;5019177;28;20200;-63
2022/05/13 01:09:52;;;;;;;20.45;5.90;;;;;;;;;;5015446;28;20042;-63
2022/05/13 01:12:20;;;;;;;28.35;7.07;;;;;;;;;;5022221;28;20042;-62
2022/05/13 01:14:53;;;;;;;24.42;5.80;;;;;;;;;;5011740;28;20049;-63
2022/05/13 01:20:13;;;;;;;22.23;5.65;;;;;;;;;;5013917;28;20061;-63
2022/05/13 01:22:42;;;;;;;21.30;6.13;;;;;;;;;;5014552;28;20042;-63
2022/05/13 01:25:09;;;;;;;19.95;5.38;;;;;;;;;;5010082;28;20108;-63
2022/05/13 01:27:35;;;;;;;25.55;7.32;;;;;;;;;;5009905;28;20067;-63
2022/05/13 01:30:02;;;;;;;27.88;7.82;;;;;;;;;;5015036;28;20053;-63
2022/05/13 01:32:28;;;;;;;22.65;6.28;;;;;;;;;;5016762;28;20053;-63
2022/05/13 01:34:54;;;;;;;24.75;7.38;;;;;;;;;;5004224;28;20137;-63
2022/05/13 01:37:20;;;;;;;28.70;6.43;;;;;;;;;;5010422;28;20068;-63
2022/05/13 01:39:46;;;;;;;20.13;5.95;;;;;;;;;;4994546;28;20046;-63
2022/05/13 01:42:12;;;;;;;27.05;6.28;;;;;;;;;;5013379;28;20042;-63
2022/05/13 01:44:38;;;;;;;32.45;7.53;;;;;;;;;;5015094;28;20437;-63
2022/05/13 01:47:05;;;;;;;26.38;6.93;;;;;;;;;;5017584;28;20047;-63
2022/05/13 01:49:31;;;;;;;27.67;7.20;;;;;;;;;;5012127;28;20541;-63
2022/05/13 01:51:57;;;;;;;38.33;7.90;;;;;;;;;;5014868;28;20042;-63
2022/05/13 01:54:23;;;;;;;28.58;6.50;;;;;;;;;;5014897;28;20584;-62
2022/05/13 01:56:49;;;;;;;35.67;7.70;;;;;;;;;;5014095;28;20046;-63
2022/05/13 01:59:15;;;;;;;24.02;6.65;;;;;;;;;;5010111;28;20149;-63
2022/05/13 02:01:41;;;;;;;26.67;7.47;;;;;;;;;;5016016;28;20045;-63
2022/05/13 02:04:08;;;;;;;26.10;7.55;;;;;;;;;;5011037;28;20049;-63
2022/05/13 02:06:34;;;;;;;25.30;7.07;;;;;;;;;;5011163;28;20046;-62
2022/05/13 02:09:01;;;;;;;33.72;8.57;;;;;;;;;;5016118;28;20120;-63
2022/05/13 02:11:28;;;;;;;29.85;7.78;;;;;;;;;;5011997;28;20045;-63
2022/05/13 02:13:54;;;;;;;26.75;7.38;;;;;;;;;;5011448;28;20125;-63
2022/05/13 02:16:21;;;;;;;28.63;7.65;;;;;;;;;;5014586;28;20049;-63
2022/05/13 02:18:47;;;;;;;30.58;7.30;;;;;;;;;;5015293;28;20045;-62
2022/05/13 02:21:14;;;;;;;27.00;7.10;;;;;;;;;;5016034;28;20062;-63
2022/05/13 02:23:40;;;;;;;29.30;7.03;;;;;;;;;;5005664;28;20077;-63
2022/05/13 02:26:08;;;;;;;28.70;8.00;;;;;;;;;;5003295;28;20506;-63
2022/05/13 02:28:34;;;;;;;35.95;8.95;;;;;;;;;;5015977;28;20049;-62
2022/05/13 02:31:01;;;;;;;28.40;7.15;;;;;;;;;;4996741;28;20136;-63
2022/05/13 02:33:28;;;;;;;33.90;7.50;;;;;;;;;;5010493;28;20501;-63
2022/05/13 02:35:54;;;;;;;35.15;8.18;;;;;;;;;;5008543;28;20121;-63
2022/05/13 02:38:21;;;;;;;38.00;9.10;;;;;;;;;;5010804;28;20042;-63
2022/05/13 02:43:32;;;;;;;26.88;6.65;;;;;;;;;;5020368;28;20045;-63
2022/05/13 02:45:58;;;;;;;36.00;6.78;;;;;;;;;;5015106;28;20224;-63
2022/05/13 02:48:25;;;;;;;29.55;7.00;;;;;;;;;;4999798;28;20124;-63
2022/05/13 02:50:51;;;;;;;31.55;6.97;;;;;;;;;;5017771;28;20037;-63
2022/05/13 02:53:17;;;;;;;31.17;6.65;;;;;;;;;;5020457;28;20124;-63
2022/05/13 02:55:44;;;;;;;31.08;6.35;;;;;;;;;;5018454;28;20049;-63
2022/05/13 02:58:10;;;;;;;27.88;5.68;;;;;;;;;;5016081;28;20092;-63
2022/05/13 03:00:36;;;;;;;23.77;6.10;;;;;;;;;;5009611;28;20117;-63
2022/05/13 03:03:04;;;;;;;29.15;6.15;;;;;;;;;;5013167;28;20099;-63
2022/05/13 03:05:31;;;;;;;30.60;6.40;;;;;;;;;;5013093;28;20042;-62
2022/05/13 03:08:00;;;;;;;27.38;6.63;;;;;;;;;;5001759;28;20065;-63
2022/05/13 03:10:26;;;;;;;24.60;7.00;;;;;;;;;;5003469;28;20061;-63
2022/05/13 03:12:53;;;;;;;28.63;6.00;;;;;;;;;;5014559;28;20042;-62
2022/05/13 03:15:19;;;;;;;23.83;5.65;;;;;;;;;;5015017;28;20095;-63
2022/05/13 03:17:45;;;;;;;28.27;6.60;;;;;;;;;;5015890;28;20046;-63
2022/05/13 03:20:13;;;;;;;25.90;6.60;;;;;;;;;;5016808;28;20486;-62
2022/05/13 03:22:39;;;;;;;20.70;5.70;;;;;;;;;;5015993;28;20042;-63
2022/05/13 03:25:05;;;;;;;31.02;6.65;;;;;;;;;;4998561;28;20042;-62
2022/05/13 03:27:31;;;;;;;22.98;6.22;;;;;;;;;;5020438;28;20053;-63
2022/05/13 03:29:58;;;;;;;25.30;6.38;;;;;;;;;;5014803;28;20080;-63
2022/05/13 03:32:24;;;;;;;23.63;6.30;;;;;;;;;;5017617;28;20057;-62
2022/05/13 03:34:50;;;;;;;20.85;5.40;;;;;;;;;;5001021;28;20037;-63
2022/05/13 03:37:16;;;;;;;27.20;6.25;;;;;;;;;;5012474;28;20045;-63
2022/05/13 03:39:43;;;;;;;21.15;5.00;;;;;;;;;;5012215;28;20045;-62
2022/05/13 03:42:09;;;;;;;28.60;5.22;;;;;;;;;;4997512;28;20164;-63
2022/05/13 03:44:36;;;;;;;21.20;5.10;;;;;;;;;;5014365;28;20061;-63
2022/05/13 03:47:03;;;;;;;22.50;5.47;;;;;;;;;;5020284;28;20037;-63
2022/05/13 03:49:29;;;;;;;23.98;5.18;;;;;;;;;;5015128;28;20073;-62
2022/05/13 03:51:55;;;;;;;26.42;5.60;;;;;;;;;;5016710;28;20113;-63
2022/05/13 03:54:22;;;;;;;22.38;4.78;;;;;;;;;;5019520;28;20506;-63
2022/05/13 03:56:48;;;;;;;21.10;5.05;;;;;;;;;;5021195;28;20095;-63
2022/05/13 03:59:14;;;;;;;20.50;4.53;;;;;;;;;;5021468;28;20076;-62
2022/05/13 04:01:40;;;;;;;20.85;4.53;;;;;;;;;;5015116;28;20050;-62
2022/05/13 04:04:06;;;;;;;24.75;4.97;;;;;;;;;;5016732;28;20046;-63
2022/05/13 04:09:17;;;;;;;24.25;4.32;;;;;;;;;;5013597;28;20053;-63
2022/05/13 04:16:04;;;;;;;16.67;4.28;;;;;;;;;;5019916;28;20124;-63
2022/05/13 04:17:14;;;;;;;16.70;3.72;;;;;;;;;;5023703;28;20053;-63
2022/05/13 04:19:41;;;;;;;13.65;2.95;;;;;;;;;;5020297;28;20045;-63
2022/05/13 04:22:07;;;;;;;11.07;3.17;;;;;;;;;;5018725;28;20211;-63
2022/05/13 04:24:33;;;;;;;12.13;2.83;;;;;;;;;;5015846;28;20083;-63
2022/05/13 04:26:59;;;;;;;17.58;2.70;;;;;;;;;;5016928;28;20046;-63
2022/05/13 04:29:25;;;;;;;10.55;2.85;;;;;;;;;;5018772;28;20086;-63
2022/05/13 04:31:52;;;;;;;11.30;2.63;;;;;;;;;;5017843;28;20149;-63
2022/05/13 04:34:18;;;;;;;9.73;2.72;;;;;;;;;;5017207;28;20066;-63
2022/05/13 04:36:44;;;;;;;15.88;2.70;;;;;;;;;;5021053;28;20044;-63
2022/05/13 04:39:13;;;;;;;15.00;3.65;;;;;;;;;;5014297;28;20056;-63
2022/05/13 04:44:25;;;;;;;9.90;2.63;;;;;;;;;;5013204;28;20078;-63
2022/05/13 04:46:51;;;;;;;12.27;3.10;;;;;;;;;;5009066;28;20041;-63
2022/05/13 04:49:17;;;;;;;8.77;2.50;;;;;;;;;;5011031;28;20500;-63
2022/05/13 04:51:43;;;;;;;12.57;2.38;;;;;;;;;;5009386;28;20038;-63
2022/05/13 04:54:10;;;;;;;10.43;2.60;;;;;;;;;;5018337;28;20053;-63
2022/05/13 04:56:36;;;;;;;9.73;2.63;;;;;;;;;;5017113;28;20114;-63
2022/05/13 04:59:03;;;;;;;11.30;2.50;;;;;;;;;;5016116;28;20052;-63
2022/05/13 05:01:30;;;;;;;14.38;2.70;;;;;;;;;;5016535;28;20056;-63
2022/05/13 05:03:56;;;;;;;10.93;2.55;;;;;;;;;;4997989;28;20120;-63
2022/05/13 05:06:22;;;;;;;12.88;2.97;;;;;;;;;;5016320;28;20069;-62
2022/05/13 05:08:49;;;;;;;13.80;2.10;;;;;;;;;;5012933;28;20064;-62
2022/05/13 05:11:16;;;;;;;9.65;2.78;;;;;;;;;;5011360;28;20037;-62
2022/05/13 05:13:44;;;;;;;17.50;2.65;;;;;;;;;;5013097;28;20045;-62
2022/05/13 05:16:11;;;;;;;8.77;2.42;;;;;;;;;;5016121;28;20190;-63
2022/05/13 05:18:38;;;;;;;9.63;2.47;;;;;;;;;;5018073;28;20053;-63
2022/05/13 05:21:05;;;;;;;10.73;1.95;;;;;;;;;;5021074;28;20045;-63
2022/05/13 05:23:32;;;;;;;10.05;2.58;;;;;;;;;;5012351;28;20136;-73
2022/05/13 05:25:59;;;;;;;6.90;2.05;;;;;;;;;;5009227;28;20042;-63
2022/05/13 05:28:27;;;;;;;9.82;2.45;;;;;;;;;;5017953;28;20033;-63
2022/05/13 05:30:53;;;;;;;13.30;2.35;;;;;;;;;;5020370;28;20049;-62
2022/05/13 05:33:20;;;;;;;10.40;2.08;;;;;;;;;;5016236;28;20409;-63
2022/05/13 05:35:46;;;;;;;11.27;2.10;;;;;;;;;;5011963;28;20045;-63
2022/05/13 05:38:12;;;;;;;8.65;2.53;;;;;;;;;;5010403;28;20042;-63
2022/05/13 05:40:39;;;;;;;12.25;2.88;;;;;;;;;;5018626;28;20398;-63
2022/05/13 05:43:06;;;;;;;9.82;3.05;;;;;;;;;;5018903;28;20116;-63
2022/05/13 05:45:33;;;;;;;10.05;2.85;;;;;;;;;;5010896;28;20038;-63
2022/05/13 05:47:59;;;;;;;11.32;3.78;;;;;;;;;;5015967;28;20367;-63
2022/05/13 05:50:26;;;;;;;13.25;3.00;;;;;;;;;;5008018;28;20053;-63
2022/05/13 05:52:52;;;;;;;10.45;2.97;;;;;;;;;;5011697;28;20050;-63
2022/05/13 05:58:05;;;;;;;13.40;2.88;;;;;;;;;;5015410;28;20438;-63
2022/05/13 06:00:33;;;;;;;12.27;2.90;;;;;;;;;;5017702;28;20428;-63
2022/05/13 06:02:59;;;;;;;10.93;2.33;;;;;;;;;;5015505;28;20040;-63
2022/05/13 06:05:25;;;;;;;15.70;3.00;;;;;;;;;;5019460;28;20075;-63
2022/05/13 06:07:53;;;;;;;12.02;2.47;;;;;;;;;;5016439;28;20080;-63
2022/05/13 06:10:19;;;;;;;15.10;2.83;;;;;;;;;;5011645;28;20453;-63
2022/05/13 06:12:46;;;;;;;10.73;2.47;;;;;;;;;;5018173;28;20450;-63
2022/05/13 06:15:13;;;;;;;9.52;2.30;;;;;;;;;;5011383;28;20045;-63
2022/05/13 06:17:44;;;;;;;12.07;2.28;;;;;;;;;;5011496;28;20473;-62
2022/05/13 06:20:11;;;;;;;15.95;2.50;;;;;;;;;;5010945;28;20104;-62
2022/05/13 06:22:37;;;;;;;9.07;1.88;;;;;;;;;;5015502;28;20033;-62
2022/05/13 06:25:04;;;;;;;11.45;2.60;;;;;;;;;;5008752;28;20116;-62
2022/05/13 06:27:30;;;;;;;13.88;2.70;;;;;;;;;;5009822;28;20438;-62
2022/05/13 06:29:56;;;;;;;10.48;2.78;;;;;;;;;;5015936;28;20049;-62
2022/05/13 06:32:23;;;;;;;10.18;2.25;;;;;;;;;;5021462;28;20064;-62
2022/05/13 06:34:49;;;;;;;12.13;2.17;;;;;;;;;;5014751;28;20122;-67
2022/05/13 06:37:15;;;;;;;12.95;2.13;;;;;;;;;;5008432;28;20088;-64
2022/05/13 06:39:42;;;;;;;12.05;2.55;;;;;;;;;;5015191;28;20033;-62
2022/05/13 06:42:08;;;;;;;14.27;2.13;;;;;;;;;;5012979;28;20536;-62
2022/05/13 06:44:34;;;;;;;9.40;2.20;;;;;;;;;;5013236;28;20392;-64
2022/05/13 06:47:00;;;;;;;9.07;2.55;;;;;;;;;;5012424;28;20398;-64
2022/05/13 06:49:26;;;;;;;14.35;2.50;;;;;;;;;;5005337;28;20049;-64
2022/05/13 06:51:52;;;;;;;11.15;2.08;;;;;;;;;;5013897;28;20439;-64
2022/05/13 06:54:19;;;;;;;6.38;1.90;;;;;;;;;;5014943;28;20386;-64
2022/05/13 06:56:45;;;;;;;15.90;2.15;;;;;;;;;;5015462;28;20050;-65
2022/05/13 06:59:11;;;;;;;11.70;1.95;;;;;;;;;;5015955;28;20339;-62
2022/05/13 07:01:37;;;;;;;9.93;2.15;;;;;;;;;;5014945;28;20042;-62
2022/05/13 07:04:04;;;;;;;11.70;2.13;;;;;;;;;;4995523;28;20124;-63
2022/05/13 07:06:30;;;;;;;11.18;2.60;;;;;;;;;;5018173;28;20049;-62
2022/05/13 07:08:57;;;;;;;12.27;2.20;;;;;;;;;;5016297;28;20045;-62
2022/05/13 07:11:23;;;;;;;13.57;1.83;;;;;;;;;;5014665;28;20112;-62
2022/05/13 07:13:49;;;;;;;9.40;2.67;;;;;;;;;;5010911;28;20359;-63
2022/05/13 07:16:15;;;;;;;12.25;2.25;;;;;;;;;;5017932;28;20490;-63
2022/05/13 07:18:42;;;;;;;20.38;2.55;;;;;;;;;;5009739;28;20038;-63
2022/05/13 07:21:08;;;;;;;13.23;2.25;;;;;;;;;;5000540;28;20497;-63
2022/05/13 07:23:34;;;;;;;10.05;2.15;;;;;;;;;;5014225;28;20133;-63
2022/05/13 07:26:00;;;;;;;18.27;2.95;;;;;;;;;;5013216;28;20622;-63
2022/05/13 07:28:27;;;;;;;9.35;2.42;;;;;;;;;;5015222;28;20049;-63
2022/05/13 07:30:54;;;;;;;14.60;2.78;;;;;;;;;;5011781;28;20049;-63
2022/05/13 07:33:21;;;;;;;7.70;2.10;;;;;;;;;;5011261;28;20050;-63
2022/05/13 07:35:48;;;;;;;10.07;1.70;;;;;;;;;;5016592;28;20045;-63
2022/05/13 07:38:14;;;;;;;10.80;2.55;;;;;;;;;;5010676;28;20048;-63
2022/05/13 07:43:25;;;;;;;10.75;1.90;;;;;;;;;;5012958;28;21678;-63
2022/05/13 07:45:51;;;;;;;12.95;2.33;;;;;;;;;;5009738;28;20057;-63
2022/05/13 07:48:18;;;;;;;9.48;2.13;;;;;;;;;;5012629;28;20052;-63
2022/05/13 07:50:44;;;;;;;8.35;2.10;;;;;;;;;;5017144;28;20038;-63
2022/05/13 07:53:10;;;;;;;13.38;2.35;;;;;;;;;;5012465;28;20046;-63
2022/05/13 07:55:36;;;;;;;16.33;2.13;;;;;;;;;;5011081;28;20447;-64
2022/05/13 07:58:03;;;;;;;12.00;2.20;;;;;;;;;;5009655;28;20038;-63
2022/05/13 08:00:32;;;;;;;10.57;2.35;;;;;;;;;;5013148;28;20037;-63
2022/05/13 08:03:00;;;;;;;12.20;2.65;;;;;;;;;;5017887;28;20129;-63
2022/05/13 08:05:29;;;;;;;10.10;2.28;;;;;;;;;;5008692;28;20477;-63
2022/05/13 08:08:01;;;;;;;11.57;2.15;;;;;;;;;;5016970;28;20125;-63
2022/05/13 08:10:27;;;;;;;10.40;2.00;;;;;;;;;;5017736;28;20095;-63
2022/05/13 08:12:53;;;;;;;12.25;2.70;;;;;;;;;;5015726;28;20056;-63
2022/05/13 08:15:19;;;;;;;9.80;2.17;;;;;;;;;;5015780;28;20433;-64
2022/05/13 08:17:46;;;;;;;12.25;3.53;;;;;;;;;;5023776;28;20136;-64
2022/05/13 08:20:12;;;;;;;10.20;1.98;;;;;;;;;;5007951;28;20065;-65
2022/05/13 08:22:38;;;;;;;11.07;1.95;;;;;;;;;;5013545;28;20440;-65
2022/05/13 08:25:04;;;;;;;7.78;2.10;;;;;;;;;;5017395;28;20450;-63
2022/05/13 08:27:33;;;;;;;12.48;2.00;;;;;;;;;;5019522;28;20084;-63
2022/05/13 08:30:01;;;;;;;12.90;2.35;;;;;;;;;;5013740;28;20046;-63
2022/05/13 08:32:28;;;;;;;10.38;1.90;;;;;;;;;;5012623;28;20105;-63
2022/05/13 08:34:54;;;;;;;9.35;2.00;;;;;;;;;;5016150;28;20108;-63
2022/05/13 08:37:20;;;;;;;10.50;1.92;;;;;;;;;;5020669;28;20037;-63
2022/05/13 08:39:46;;;;;;;11.35;2.20;;;;;;;;;;5020871;28;20048;-63
2022/05/13 08:42:18;;;;;;;11.10;2.75;;;;;;;;;;5012795;28;20033;-63
2022/05/13 08:44:44;;;;;;;10.70;1.80;;;;;;;;;;5015362;28;20049;-63
2022/05/13 08:47:19;;;;;;;11.80;2.80;;;;;;;;;;5024817;28;20163;-63
2022/05/13 08:49:49;;;;;;;9.45;2.05;;;;;;;;;;5016284;28;20091;-63
2022/05/13 08:55:08;;;;;;;12.15;2.33;;;;;;;;;;5012252;28;20077;-63
2022/05/13 08:57:38;;;;;;;12.05;2.13;;;;;;;;;;5019520;28;20386;-63
2022/05/13 09:00:08;;;;;;;9.40;2.05;;;;;;;;;;5014567;28;20046;-63
2022/05/13 09:02:37;;;;;;;12.20;2.75;;;;;;;;;;5022161;28;20392;-63
2022/05/13 09:05:05;;;;;;;9.50;2.45;;;;;;;;;;5016811;28;20077;-63
2022/05/13 09:07:32;;;;;;;8.95;1.88;;;;;;;;;;5012533;28;20045;-63
2022/05/13 09:10:00;;;;;;;9.27;1.98;;;;;;;;;;5011641;28;20081;-63
2022/05/13 09:12:33;;;;;;;12.30;2.13;;;;;;;;;;5017787;28;20038;-63
2022/05/13 09:15:08;;;;;;;10.32;2.40;;;;;;;;;;5011698;28;20122;-63
2022/05/13 09:17:37;;;;;;;11.73;2.22;;;;;;;;;;5018840;28;20080;-63
2022/05/13 09:20:11;;;;;;;11.32;2.60;;;;;;;;;;5019040;28;20048;-62
2022/05/13 09:22:40;;;;;;;16.13;2.80;;;;;;;;;;5014748;28;20097;-63
2022/05/13 09:25:07;;;;;;;12.07;2.97;;;;;;;;;;5016702;28;20107;-63
2022/05/13 09:27:50;;;;;;;14.98;2.90;;;;;;;;;;5020868;28;20065;-63
2022/05/13 09:30:19;;;;;;;11.88;3.05;;;;;;;;;;5013928;28;20435;-63
2022/05/13 09:32:45;;;;;;;13.45;2.92;;;;;;;;;;5011426;28;20042;-63
2022/05/13 09:35:24;;;;;;;11.77;3.25;;;;;;;;;;5012724;28;20096;-63
2022/05/13 09:37:50;;;;;;;11.25;2.55;;;;;;;;;;5014038;28;20124;-63
2022/05/13 09:40:17;;;;;;;14.27;2.47;;;;;;;;;;5011661;28;20037;-63
2022/05/13 09:42:44;;;;;;;9.93;3.05;;;;;;;;;;5020330;28;20038;-63
2022/05/13 09:45:21;;;;;;;9.45;2.47;;;;;;;;;;5012291;28;20049;-63
2022/05/13 09:47:58;;;;;;;10.07;2.35;;;;;;;;;;5011990;28;20088;-63
2022/05/13 09:50:29;;;;;;;13.00;2.63;;;;;;;;;;5017643;28;20038;-63
2022/05/13 09:53:02;;;;;;;9.55;2.33;;;;;;;;;;5011982;28;20232;-63
2022/05/13 09:55:37;;;;;;;8.20;2.28;;;;;;;;;;5016298;28;20048;-63
2022/05/13 09:58:08;;;;;;;10.40;2.08;;;;;;;;;;5009538;28;20151;-63
2022/05/13 10:00:37;;;;;;;11.63;2.60;;;;;;;;;;5015111;28;20136;-63
2022/05/13 10:03:09;;;;;;;16.77;2.67;;;;;;;;;;5016759;28;20069;-63
2022/05/13 10:05:35;;;;;;;10.68;2.30;;;;;;;;;;5011558;28;20497;-64
2022/05/13 10:08:06;;;;;;;9.13;2.33;;;;;;;;;;5014938;28;20041;-63
2022/05/13 10:16:13;;;;;;;9.00;2.03;;;;;;;;;;5015256;28;20050;-64
2022/05/13 10:18:46;;;;;;;9.10;2.05;;;;;;;;;;5011347;28;20445;-64
2022/05/13 10:21:20;;;;;;;11.57;2.60;;;;;;;;;;5011410;28;20049;-64
2022/05/13 10:23:56;;;;;;;9.98;2.33;;;;;;;;;;5014695;28;20462;-63
2022/05/13 10:26:25;;;;;;;10.13;2.33;;;;;;;;;;5010845;28;20065;-64
2022/05/13 10:28:52;;;;;;;8.63;2.38;;;;;;;;;;5006374;28;20056;-64
2022/05/13 10:31:21;;;;;;;9.98;2.17;;;;;;;;;;5013189;28;20401;-64
2022/05/13 10:33:57;;;;;;;9.18;2.70;;;;;;;;;;5013903;28;20137;-64
2022/05/13 10:36:29;;;;;;;8.48;2.08;;;;;;;;;;5015030;28;20041;-64
2022/05/13 10:39:07;;;;;;;6.95;2.22;;;;;;;;;;5010834;28;20041;-64
2022/05/13 10:41:36;;;;;;;8.63;2.38;;;;;;;;;;4996591;28;20037;-64
2022/05/13 10:44:09;;;;;;;11.73;2.28;;;;;;;;;;5015390;28;20088;-64
2022/05/13 10:46:44;;;;;;;11.73;2.47;;;;;;;;;;4992871;28;20053;-64
2022/05/13 10:49:11;;;;;;;13.85;3.20;;;;;;;;;;5011914;28;20041;-64
2022/05/13 10:51:47;;;;;;;9.55;2.40;;;;;;;;;;5011132;28;20049;-64
2022/05/13 10:54:25;;;;;;;10.48;2.20;;;;;;;;;;5015974;28;20033;-64
2022/05/13 10:56:56;;;;;;;11.25;2.47;;;;;;;;;;5016797;28;20107;-64
2022/05/13 10:59:29;;;;;;;8.43;2.10;;;;;;;;;;5013211;28;20375;-63
2022/05/13 11:02:01;;;;;;;13.15;2.42;;;;;;;;;;5010087;28;20053;-64
2022/05/13 11:04:33;;;;;;;9.13;2.20;;;;;;;;;;5009673;28;20046;-63
2022/05/13 11:07:15;;;;;;;9.38;2.25;;;;;;;;;;5018799;28;20037;-63
2022/05/13 11:09:47;;;;;;;10.32;2.42;;;;;;;;;;5017179;28;20147;-64
2022/05/13 11:12:33;;;;;;;14.40;2.60;;;;;;;;;;5015113;28;20046;-63
2022/05/13 11:15:07;;;;;;;11.52;2.58;;;;;;;;;;5017114;28;20060;-64
2022/05/13 11:17:33;;;;;;;12.98;2.35;;;;;;;;;;5016233;28;20038;-63
2022/05/13 11:20:00;;;;;;;16.33;3.08;;;;;;;;;;5010144;28;20038;-64
2022/05/13 11:22:36;;;;;;;7.18;2.30;;;;;;;;;;5017479;28;20053;-63
2022/05/13 11:27:55;;;;;;;10.70;2.72;;;;;;;;;;4997938;28;20054;-64
2022/05/13 11:30:28;;;;;;;11.02;2.60;;;;;;;;;;5009531;28;20098;-64
2022/05/13 11:33:16;;;;;;;10.07;2.20;;;;;;;;;;5021544;28;20046;-64
2022/05/13 11:35:46;;;;;;;8.35;2.30;;;;;;;;;;5016307;28;20141;-63
2022/05/13 11:38:20;;;;;;;14.23;2.83;;;;;;;;;;5021019;28;20417;-63
2022/05/13 11:40:51;;;;;;;10.70;2.85;;;;;;;;;;5018072;28;20068;-64
2022/05/13 11:43:33;;;;;;;26.80;3.72;;;;;;;;;;5019808;28;20056;-63
2022/05/13 11:46:02;;;;;;;12.82;2.42;;;;;;;;;;5007345;28;20060;-64
2022/05/13 11:48:30;;;;;;;14.70;3.00;;;;;;;;;;5023552;28;20385;-63
2022/05/13 11:51:08;;;;;;;12.05;3.17;;;;;;;;;;5017177;28;20132;-63
2022/05/13 11:53:42;;;;;;;12.45;2.53;;;;;;;;;;5009018;28;20048;-64
2022/05/13 11:56:13;;;;;;;12.15;3.00;;;;;;;;;;5021672;28;20192;-63
2022/05/13 11:58:45;;;;;;;16.45;2.60;;;;;;;;;;5017073;28;20029;-63
2022/05/13 12:01:12;;;;;;;12.48;3.13;;;;;;;;;;5023876;28;20049;-64
2022/05/13 12:03:39;;;;;;;11.95;2.45;;;;;;;;;;5021149;28;20052;-64
2022/05/13 12:06:08;;;;;;;10.40;3.05;;;;;;;;;;5027469;28;20053;-64
2022/05/13 12:08:40;;;;;;;11.63;2.40;;;;;;;;;;5025361;28;20034;-64
2022/05/13 12:11:17;;;;;;;14.85;2.50;;;;;;;;;;5018480;28;20060;-64
2022/05/13 12:13:49;;;;;;;10.15;2.42;;;;;;;;;;5019242;28;20042;-63
2022/05/13 12:16:36;;;;;;;10.25;2.55;;;;;;;;;;5021391;28;20037;-63
2022/05/13 12:19:02;;;;;;;13.50;2.83;;;;;;;;;;5013918;28;20050;-64
2022/05/13 12:21:34;;;;;;;10.98;2.47;;;;;;;;;;4996115;28;20563;-64
2022/05/13 12:24:00;;;;;;;11.70;3.45;;;;;;;;;;5013600;28;20042;-64
2022/05/13 12:26:45;;;;;;;8.88;2.25;;;;;;;;;;5026900;28;20042;-64
2022/05/13 12:29:15;;;;;;;13.07;2.92;;;;;;;;;;5034714;28;20457;-64
2022/05/13 12:31:47;;;;;;;17.77;3.15;;;;;;;;;;5034527;28;20046;-64
2022/05/13 12:39:53;;;;;;;12.88;2.38;;;;;;;;;;5014135;28;20042;-64
2022/05/13 12:42:35;;;;;;;9.88;2.90;;;;;;;;;;5014802;28;20104;-64
2022/05/13 12:45:02;;;;;;;6.78;1.98;;;;;;;;;;4997249;28;20068;-64
2022/05/13 12:47:29;;;;;;;12.95;2.72;;;;;;;;;;5028131;28;20041;-64
2022/05/13 12:50:00;;;;;;;11.02;2.38;;;;;;;;;;5034578;28;20042;-64
2022/05/13 12:52:26;;;;;;;11.45;2.47;;;;;;;;;;5033935;28;20121;-64
2022/05/13 12:54:57;;;;;;;11.75;2.60;;;;;;;;;;5016777;28;20401;-64
2022/05/13 12:57:26;;;;;;;13.90;2.85;;;;;;;;;;5021699;28;20370;-64
2022/05/13 12:59:53;;;;;;;12.68;2.95;;;;;;;;;;5013870;28;20057;-64
2022/05/13 13:02:22;;;;;;;15.55;3.05;;;;;;;;;;5014712;28;20096;-64
2022/05/13 13:04:53;;;;;;;9.60;2.63;;;;;;;;;;5014321;28;20187;-64
2022/05/13 13:07:21;;;;;;;8.13;2.05;;;;;;;;;;5021858;28;20045;-64
2022/05/13 13:09:49;;;;;;;10.48;2.42;;;;;;;;;;5034200;28;20060;-63
2022/05/13 13:12:15;;;;;;;17.17;2.95;;;;;;;;;;5034121;28;20041;-64
2022/05/13 13:14:44;;;;;;;11.73;2.50;;;;;;;;;;5033335;28;20038;-64
2022/05/13 13:17:20;;;;;;;11.38;2.70;;;;;;;;;;5029326;28;20034;-64
2022/05/13 13:19:48;;;;;;;7.30;2.10;;;;;;;;;;5014023;28;20521;-64
2022/05/13 13:22:19;;;;;;;12.10;2.72;;;;;;;;;;5013123;28;20069;-64
2022/05/13 13:24:45;;;;;;;15.10;3.20;;;;;;;;;;4996296;28;20045;-64
2022/05/13 13:27:17;;;;;;;9.27;2.55;;;;;;;;;;4997530;28;20049;-64
2022/05/13 13:29:44;;;;;;;12.70;2.20;;;;;;;;;;4995438;28;20050;-64
2022/05/13 13:32:19;;;;;;;14.32;3.15;;;;;;;;;;5013997;28;20041;-64
2022/05/13 13:34:52;;;;;;;13.32;3.38;;;;;;;;;;5012793;28;20131;-64
2022/05/13 13:37:19;;;;;;;12.40;2.67;;;;;;;;;;5013876;28;20464;-64
2022/05/13 13:39:45;;;;;;;12.68;3.00;;;;;;;;;;5031214;28;20562;-64
2022/05/13 13:42:13;;;;;;;11.85;2.78;;;;;;;;;;5013525;28;20053;-64
2022/05/13 13:44:40;;;;;;;10.88;2.83;;;;;;;;;;5013602;28;20042;-64
2022/05/13 13:47:11;;;;;;;15.77;3.63;;;;;;;;;;5013681;28;20057;-64
2022/05/13 13:49:38;;;;;;;11.57;2.60;;;;;;;;;;4999276;28;20480;-64
2022/05/13 13:52:06;;;;;;;10.40;2.60;;;;;;;;;;5011021;28;20459;-64
2022/05/13 13:54:37;;;;;;;13.05;3.58;;;;;;;;;;5010123;28;20049;-63
2022/05/13 13:57:09;;;;;;;8.38;2.58;;;;;;;;;;5013039;28;20029;-64
2022/05/13 13:59:41;;;;;;;13.00;2.53;;;;;;;;;;5011338;28;20121;-64
2022/05/13 14:02:08;;;;;;;9.70;3.00;;;;;;;;;;5015025;28;20064;-64
2022/05/13 14:04:38;;;;;;;14.10;3.17;;;;;;;;;;5018634;28;20046;-63
2022/05/13 14:07:08;;;;;;;12.88;2.80;;;;;;;;;;5015864;28;20068;-64
2022/05/13 14:09:37;;;;;;;16.33;2.72;;;;;;;;;;5016229;28;20107;-65
2022/05/13 14:12:06;;;;;;;10.65;2.53;;;;;;;;;;5018671;28;20052;-65
2022/05/13 14:14:33;;;;;;;12.48;2.67;;;;;;;;;;5012194;28;20128;-64
2022/05/13 14:16:59;;;;;;;10.18;2.53;;;;;;;;;;5017926;28;20046;-64
2022/05/13 14:19:27;;;;;;;14.80;3.22;;;;;;;;;;5015821;28;20049;-64
2022/05/13 14:22:00;;;;;;;10.93;2.53;;;;;;;;;;5014674;28;20041;-64
2022/05/13 14:24:34;;;;;;;12.45;2.95;;;;;;;;;;5020757;28;20124;-65
2022/05/13 14:27:05;;;;;;;16.67;2.97;;;;;;;;;;5018799;28;20132;-64
2022/05/13 14:29:34;;;;;;;15.60;3.58;;;;;;;;;;5018137;28;20029;-64
2022/05/13 14:32:07;;;;;;;8.93;2.40;;;;;;;;;;5011191;28;20049;-64
2022/05/13 14:34:33;;;;;;;13.45;2.65;;;;;;;;;;5016152;28;20498;-64
2022/05/13 14:37:01;;;;;;;11.57;3.10;;;;;;;;;;5016933;28;20054;-64
2022/05/13 14:39:49;;;;;;;12.98;2.63;;;;;;;;;;5001829;28;20045;-64
2022/05/13 14:42:19;;;;;;;13.65;2.80;;;;;;;;;;4999831;28;20052;-64
2022/05/13 14:44:48;;;;;;;13.52;3.38;;;;;;;;;;5016460;28;20557;-64
2022/05/13 14:47:19;;;;;;;13.18;2.70;;;;;;;;;;5015286;28;20096;-64
2022/05/13 14:49:46;;;;;;;11.98;2.70;;;;;;;;;;5011619;28;20049;-64
2022/05/13 14:52:27;;;;;;;11.40;2.40;;;;;;;;;;4998447;28;20060;-64
2022/05/13 14:54:55;;;;;;;10.05;2.50;;;;;;;;;;5013815;28;20188;-64
2022/05/13 14:57:21;;;;;;;12.50;3.33;;;;;;;;;;5015220;28;20036;-64
2022/05/13 15:00:06;;;;;;;9.55;2.50;;;;;;;;;;4992509;28;20504;-64
2022/05/13 15:02:45;;;;;;;9.07;2.05;;;;;;;;;;4997081;28;20489;-64
2022/05/13 15:05:29;;;;;;;11.18;2.42;;;;;;;;;;5019176;28;20041;-64
2022/05/13 15:07:56;;;;;;;10.32;2.92;;;;;;;;;;5018356;28;20099;-64
2022/05/13 15:10:24;;;;;;;12.77;3.47;;;;;;;;;;5020908;28;20038;-64
2022/05/13 15:12:51;;;;;;;12.25;3.10;;;;;;;;;;5013725;28;20137;-64
2022/05/13 15:15:18;;;;;;;13.60;3.13;;;;;;;;;;5023957;28;20056;-64
2022/05/13 15:17:49;;;;;;;11.55;2.30;;;;;;;;;;5017603;28;20038;-64